createdAt,value
2023-06-16T00:04:13.138Z,66.77
2023-06-16T00:09:17.384Z,66.57
2023-06-16T00:14:15.421Z,65.09
2023-06-16T00:19:15.561Z,65.56
2023-06-16T00:24:14.730Z,66.40
2023-06-16T00:29:15.864Z,67.74
2023-06-16T00:34:16.909Z,69.76
2023-06-16T00:39:18.079Z,69.15
2023-06-16T00:44:19.140Z,71.00
2023-06-16T00:49:24.103Z,70.42
2023-06-16T00:54:21.201Z,71.13
2023-06-16T00:59:22.455Z,70.73
2023-06-16T01:04:24.508Z,71.37
2023-06-16T01:09:24.579Z,70.59
2023-06-16T01:14:23.638Z,69.99
2023-06-16T01:19:26.691Z,69.18
2023-06-16T01:24:25.878Z,68.48
2023-06-16T01:29:27.963Z,68.44
2023-06-16T01:34:28.026Z,69.48
2023-06-16T01:39:27.139Z,70.79
2023-06-16T01:44:28.187Z,72.61
2023-06-16T01:49:29.322Z,71.40
2023-06-16T01:54:30.386Z,72.75
2023-06-16T01:59:31.416Z,74.46
2023-06-16T02:04:32.612Z,75.60
2023-06-16T02:09:34.625Z,75.60
2023-06-16T02:14:33.746Z,75.10
2023-06-16T02:19:34.809Z,70.93
2023-06-16T02:24:35.929Z,73.18
2023-06-16T02:29:37.055Z,72.98
2023-06-16T02:34:38.133Z,73.62
2023-06-16T02:39:40.224Z,75.24
2023-06-16T02:44:40.295Z,74.93
2023-06-16T02:49:39.452Z,74.33
2023-06-16T02:54:41.505Z,73.22
2023-06-16T02:59:40.885Z,71.10
2023-06-16T03:04:41.895Z,71.44
2023-06-16T03:09:43.010Z,71.13
2023-06-16T03:14:44.163Z,70.29
2023-06-16T03:19:44.216Z,69.18
2023-06-16T03:24:45.339Z,68.74
2023-06-16T03:29:46.427Z,68.57
2023-06-16T03:34:47.492Z,69.04
2023-06-16T03:39:48.564Z,68.98
2023-06-16T03:44:49.632Z,70.69
2023-06-16T03:49:50.668Z,72.51
2023-06-16T03:54:51.906Z,74.97
2023-06-16T03:59:53.058Z,76.02
2023-06-16T04:04:55.234Z,74.26
2023-06-16T04:09:55.206Z,73.11
2023-06-16T04:14:55.298Z,74.33
2023-06-16T04:19:54.367Z,74.53
2023-06-16T04:24:55.578Z,73.42
2023-06-16T04:29:56.617Z,69.85
2023-06-16T04:34:57.719Z,70.76
2023-06-16T04:39:59.156Z,71.26
2023-06-16T04:45:00.407Z,70.23
2023-06-16T04:50:02.465Z,68.01
2023-06-16T04:55:01.491Z,66.94
2023-06-16T05:00:04.604Z,65.47
2023-06-16T05:05:04.677Z,64.23
2023-06-16T05:10:03.755Z,63.29
2023-06-16T05:15:06.875Z,61.88
2023-06-16T05:20:05.995Z,63.79
2023-06-16T05:25:07.019Z,62.99
2023-06-16T05:30:08.040Z,63.42
2023-06-16T05:35:09.170Z,63.29
2023-06-16T05:40:10.370Z,63.96
2023-06-16T05:45:11.391Z,63.31
2023-06-16T05:50:13.474Z,63.70
2023-06-16T05:55:12.619Z,63.10
2023-06-16T06:00:14.629Z,62.60
2023-06-16T06:05:13.679Z,63.47
2023-06-16T06:10:14.802Z,63.28
2023-06-16T06:15:16.971Z,63.34
2023-06-16T06:20:16.082Z,63.07
2023-06-16T06:25:17.378Z,63.34
2023-06-16T06:30:18.722Z,61.58
2023-06-16T06:35:18.048Z,63.17
2023-06-16T06:40:19.233Z,62.77
2023-06-16T06:45:20.323Z,62.77
2023-06-16T06:50:21.752Z,62.14
2023-06-16T06:55:20.959Z,61.94
2023-06-16T07:00:24.125Z,61.81
2023-06-16T07:05:23.204Z,62.08
2023-06-16T07:10:24.295Z,60.12
2023-06-16T07:15:26.375Z,59.44
2023-06-16T07:20:25.467Z,58.47
2023-06-16T07:25:27.479Z,58.67
2023-06-16T07:30:27.660Z,59.79
2023-06-16T07:35:27.705Z,60.16
2023-06-16T07:40:26.937Z,57.78
2023-06-16T07:45:27.997Z,55.71
2023-06-16T07:50:30.083Z,54.88
2023-06-16T07:55:31.176Z,55.98
2023-06-16T08:00:30.277Z,54.53
2023-06-16T08:05:31.326Z,54.97
2023-06-16T08:10:32.394Z,53.66
2023-06-16T08:15:34.481Z,53.96
2023-06-16T08:20:33.520Z,54.16
2023-06-16T08:25:33.605Z,53.19
2023-06-16T08:30:35.634Z,51.87
2023-06-16T08:35:34.730Z,49.96
2023-06-16T08:40:35.880Z,49.84
2023-06-16T08:45:36.930Z,50.63
2023-06-16T08:50:39.805Z,51.42
2023-06-16T08:55:38.781Z,49.76
2023-06-16T09:00:39.825Z,48.42
2023-06-16T09:05:40.850Z,49.84
2023-06-16T09:10:42.867Z,50.13
2023-06-16T09:15:41.972Z,51.35
2023-06-16T09:20:43.097Z,51.82
2023-06-16T09:25:44.263Z,55.36
2023-06-16T09:30:47.278Z,54.46
2023-06-16T09:35:46.367Z,54.59
2023-06-16T09:40:47.487Z,54.86
2023-06-16T09:45:49.557Z,51.95
2023-06-16T09:50:48.640Z,52.94
2023-06-16T09:55:49.671Z,52.00
2023-06-16T10:00:52.214Z,52.94
2023-06-16T10:05:51.385Z,52.34
2023-06-16T10:10:53.534Z,49.76
2023-06-16T10:15:52.630Z,49.29
2023-06-16T10:20:53.697Z,49.49
2023-06-16T10:25:53.759Z,48.17
2023-06-16T10:30:54.859Z,49.02
2023-06-16T10:36:07.836Z,44.60
2023-06-16T10:40:56.841Z,45.56
2023-06-16T10:45:56.002Z,44.95
2023-06-16T10:50:57.144Z,45.82
2023-06-16T10:55:58.267Z,43.96
2023-06-16T11:01:00.316Z,44.01
2023-06-16T11:05:59.464Z,44.52
2023-06-16T11:11:02.477Z,43.70
2023-06-16T11:16:01.681Z,44.54
2023-06-16T11:21:02.791Z,43.35
2023-06-16T11:26:03.910Z,44.29
2023-06-16T11:31:05.055Z,45.89
2023-06-16T11:36:06.128Z,46.19
2023-06-16T11:41:12.079Z,45.14
2023-06-16T11:46:07.356Z,44.53
2023-06-16T11:51:07.426Z,42.85
2023-06-16T11:56:09.565Z,44.13
2023-06-16T12:01:10.622Z,42.85
2023-06-16T12:06:10.971Z,41.28
2023-06-16T12:11:10.135Z,42.31
2023-06-16T12:16:12.171Z,41.85
2023-06-16T12:21:11.195Z,41.83
2023-06-16T12:26:12.579Z,43.42
2023-06-16T12:31:13.908Z,41.41
2023-06-16T12:36:14.969Z,41.91
2023-06-16T12:41:17.123Z,41.95
2023-06-16T12:46:16.319Z,41.93
2023-06-16T12:51:17.317Z,42.23
2023-06-16T12:56:18.499Z,43.99
2023-06-16T13:01:19.585Z,42.94
2023-06-16T13:06:20.652Z,41.58
2023-06-16T13:11:23.630Z,42.03
2023-06-16T13:16:22.784Z,41.55
2023-06-16T13:21:23.876Z,40.82
2023-06-16T13:26:24.977Z,41.79
2023-06-16T13:31:26.071Z,42.91
2023-06-16T13:36:27.167Z,40.64
2023-06-16T13:41:28.216Z,40.20
2023-06-16T13:46:29.384Z,38.24
2023-06-16T13:51:30.435Z,39.71
2023-06-16T13:56:31.532Z,39.90
2023-06-16T14:01:32.664Z,38.42
2023-06-16T14:06:33.713Z,39.65
2023-06-16T14:11:34.878Z,39.47
2023-06-16T14:16:36.035Z,38.40
2023-06-16T14:21:37.191Z,38.98
2023-06-16T14:26:38.242Z,39.08
2023-06-16T14:31:39.308Z,38.39
2023-06-16T14:36:40.409Z,39.08
2023-06-16T14:41:41.474Z,38.94
2023-06-16T14:46:42.648Z,39.63
2023-06-16T14:51:43.683Z,39.97
2023-06-16T14:56:45.758Z,38.90
2023-06-16T15:01:46.815Z,39.22
2023-06-16T15:06:45.845Z,41.36
2023-06-16T15:11:46.912Z,38.70
2023-06-16T15:16:48.983Z,40.19
2023-06-16T15:21:48.089Z,39.95
2023-06-16T15:26:49.179Z,40.17
2023-06-16T15:31:50.233Z,40.52
2023-06-16T15:36:52.308Z,38.55
2023-06-16T15:41:51.382Z,38.35
2023-06-16T15:46:52.499Z,35.86
2023-06-16T15:51:53.714Z,36.24
2023-06-16T15:56:55.765Z,37.34
2023-06-16T16:01:54.848Z,36.98
2023-06-16T16:06:55.894Z,38.40
2023-06-16T16:11:57.196Z,39.29
2023-06-16T16:16:59.284Z,39.73
2023-06-16T16:22:00.377Z,39.20
2023-06-16T16:27:00.444Z,38.02
2023-06-16T16:31:59.607Z,36.42
2023-06-16T16:37:01.652Z,37.20
2023-06-16T16:42:01.689Z,36.49
2023-06-16T16:47:00.858Z,36.39
2023-06-16T16:52:05.821Z,35.53
2023-06-16T16:57:02.863Z,34.48
2023-06-16T17:02:04.039Z,35.56
2023-06-16T17:07:06.445Z,33.48
2023-06-16T17:12:06.452Z,34.91
2023-06-16T17:17:05.558Z,38.64
2023-06-16T17:22:06.659Z,37.11
2023-06-16T17:27:07.701Z,38.20
2023-06-16T17:32:10.094Z,40.05
2023-06-16T17:37:09.124Z,40.09
2023-06-16T17:42:12.164Z,40.17
2023-06-16T17:47:11.433Z,39.76
2023-06-16T17:52:12.641Z,41.39
2023-06-16T17:57:13.898Z,44.86
2023-06-16T18:02:15.183Z,46.42
2023-06-16T18:07:17.439Z,48.49
2023-06-16T18:12:17.766Z,49.76
2023-06-16T18:17:16.987Z,48.86
2023-06-16T18:22:18.384Z,48.34
2023-06-16T18:27:20.696Z,48.64
2023-06-16T18:32:21.084Z,48.76
2023-06-16T18:37:20.617Z,49.36
2023-06-16T18:42:19.026Z,50.38
2023-06-16T18:47:21.568Z,47.19
2023-06-16T18:52:21.137Z,48.28
2023-06-16T18:57:20.670Z,47.81
2023-06-16T19:02:20.289Z,49.43
2023-06-16T19:07:19.800Z,50.55
2023-06-16T19:12:19.230Z,51.17
2023-06-16T19:17:21.514Z,51.29
2023-06-16T19:22:20.964Z,51.22
2023-06-16T19:27:20.186Z,53.44
2023-06-16T19:32:21.316Z,55.07
2023-06-16T19:37:23.373Z,55.57
2023-06-16T19:42:22.425Z,55.27
2023-06-16T19:47:25.548Z,55.07
2023-06-16T19:52:26.554Z,55.47
2023-06-16T19:57:25.600Z,55.07
2023-06-16T20:02:26.770Z,55.44
2023-06-16T20:07:28.189Z,55.66
2023-06-16T20:12:29.393Z,55.97
2023-06-16T20:17:30.513Z,56.07
2023-06-16T20:22:33.524Z,56.99
2023-06-16T20:27:31.612Z,57.52
2023-06-16T20:32:33.714Z,57.85
2023-06-16T20:37:33.778Z,58.28
2023-06-16T20:42:33.861Z,58.61
2023-06-16T20:47:32.888Z,59.44
2023-06-16T20:52:34.955Z,59.77
2023-06-16T20:57:34.150Z,60.27
2023-06-16T21:02:35.314Z,62.93
2023-06-16T21:07:37.362Z,62.53
2023-06-16T21:12:36.503Z,60.97
2023-06-16T21:17:37.880Z,59.64
2023-06-16T21:22:40.908Z,59.96
2023-06-16T21:27:39.944Z,61.72
2023-06-16T21:32:41.107Z,63.79
2023-06-16T21:37:42.171Z,66.57
2023-06-16T21:42:43.255Z,66.10
2023-06-16T21:47:44.368Z,66.10
2023-06-16T21:52:46.392Z,66.50
2023-06-16T21:57:45.502Z,65.09
2023-06-16T22:02:46.630Z,66.83
2023-06-16T22:07:47.691Z,64.89
2023-06-16T22:12:48.773Z,66.10
2023-06-16T22:17:50.812Z,66.47
2023-06-16T22:22:49.832Z,66.16
2023-06-16T22:27:50.936Z,65.56
2023-06-16T22:32:52.029Z,65.33
2023-06-16T22:37:54.132Z,65.12
2023-06-16T22:42:53.234Z,65.02
2023-06-16T22:47:56.329Z,65.53
2023-06-16T22:52:55.365Z,66.16
2023-06-16T22:57:57.454Z,65.76
2023-06-16T23:02:56.701Z,65.16
2023-06-16T23:07:57.787Z,64.82
2023-06-16T23:12:59.811Z,64.32
2023-06-16T23:17:58.871Z,64.35
2023-06-16T23:23:01.106Z,63.95
2023-06-16T23:28:00.160Z,64.05
2023-06-16T23:33:02.195Z,63.75
2023-06-16T23:38:01.254Z,64.65
2023-06-16T23:43:02.304Z,64.78
2023-06-16T23:48:04.462Z,65.19
2023-06-16T23:53:03.607Z,65.49
2023-06-16T23:58:04.743Z,66.86
